Time;durP1;ratioP1;P1;durP2;ratioP2;P2;SDS_P1;SDS_P2;PMS_P1;PMS_P2;Temp;Humidity;BMP_temperature;BMP_pressure;BME280_temperature;BME280_humidity;BME280_pressure;Samples;Min_cycle;Max_cycle;Signal;HPM_P1;HPM_P2
2023/04/22 00:01:47;;;;;;;33.25;8.45;;;;;;;6.79;100.00;100624.00;5016101;28;20025;-77
2023/04/22 00:04:13;;;;;;;50.45;10.07;;;;;;;6.73;100.00;100635.91;5023188;28;20549;-76
2023/04/22 00:06:39;;;;;;;56.05;9.60;;;;;;;6.65;100.00;100623.03;5021868;28;20037;-77
2023/04/22 00:09:04;;;;;;;17.80;7.18;;;;;;;6.59;100.00;100634.09;5027430;28;20029;-76
2023/04/22 00:11:30;;;;;;;30.17;7.47;;;;;;;6.52;100.00;100630.06;5022574;28;20025;-77
2023/04/22 00:13:55;;;;;;;19.15;7.28;;;;;;;6.50;100.00;100628.44;5022719;28;20033;-75
2023/04/22 00:16:20;;;;;;;19.20;8.27;;;;;;;6.45;100.00;100629.56;5018352;28;20060;-76
2023/04/22 00:18:46;;;;;;;21.35;8.98;;;;;;;6.42;100.00;100627.09;5027984;28;20045;-76
2023/04/22 00:21:11;;;;;;;21.17;9.95;;;;;;;6.44;100.00;100624.31;5028050;28;20042;-76
2023/04/22 00:23:36;;;;;;;21.17;9.52;;;;;;;6.40;100.00;100621.00;5017569;28;20431;-76
2023/04/22 00:26:02;;;;;;;23.23;10.73;;;;;;;6.41;100.00;100621.84;5027746;28;20026;-76
2023/04/22 00:28:27;;;;;;;22.58;10.63;;;;;;;6.37;100.00;100623.84;5026295;28;20029;-76
2023/04/22 00:30:53;;;;;;;22.98;11.50;;;;;;;6.38;100.00;100624.69;5012595;28;20022;-76
2023/04/22 00:33:18;;;;;;;22.65;11.20;;;;;;;6.34;100.00;100623.16;5020883;28;20051;-77
2023/04/22 00:35:45;;;;;;;22.48;11.90;;;;;;;6.33;100.00;100624.97;5037149;28;20041;-76
2023/04/22 00:38:11;;;;;;;23.65;12.88;;;;;;;6.29;100.00;100626.94;5025425;28;20132;-76
2023/04/22 00:40:36;;;;;;;23.95;12.57;;;;;;;6.30;100.00;100620.66;5023115;28;20045;-76
2023/04/22 00:43:01;;;;;;;25.98;13.85;;;;;;;6.35;100.00;100619.53;5027474;28;20022;-76
2023/04/22 00:45:27;;;;;;;23.70;13.77;;;;;;;6.39;100.00;100621.09;5035825;28;20057;-76
2023/04/22 00:47:53;;;;;;;24.52;13.20;;;;;;;6.44;100.00;100621.66;5029501;28;20489;-76
2023/04/22 00:50:18;;;;;;;25.73;14.02;;;;;;;6.45;100.00;100620.72;5028205;28;20036;-76
2023/04/22 00:52:43;;;;;;;25.20;14.07;;;;;;;6.46;100.00;100617.94;5025322;28;20025;-76
2023/04/22 00:55:10;;;;;;;24.58;13.75;;;;;;;6.48;100.00;100625.84;5018680;28;20040;-76
2023/04/22 00:57:36;;;;;;;25.63;13.65;;;;;;;6.49;100.00;100627.59;5022882;28;20060;-76
2023/04/22 01:00:03;;;;;;;24.30;13.05;;;;;;;6.50;100.00;100632.00;5021153;28;20526;-77
2023/04/22 01:02:29;;;;;;;24.10;13.68;;;;;;;6.52;100.00;100626.56;5018041;28;20868;-73
2023/04/22 01:04:54;;;;;;;23.90;13.13;;;;;;;6.59;100.00;100625.22;5024155;28;20034;-74
2023/04/22 01:07:20;;;;;;;25.02;13.35;;;;;;;6.62;100.00;100623.22;5026837;28;20025;-73
2023/04/22 01:09:46;;;;;;;24.98;14.20;;;;;;;6.69;100.00;100628.19;5020739;28;20030;-73
2023/04/22 01:12:11;;;;;;;24.70;14.40;;;;;;;6.71;100.00;100619.13;5028641;28;20037;-74
2023/04/22 01:14:37;;;;;;;26.20;14.88;;;;;;;6.77;100.00;100621.44;5024826;28;20080;-73
2023/04/22 01:17:02;;;;;;;25.10;15.07;;;;;;;6.80;100.00;100618.56;5021601;28;20477;-73
2023/04/22 01:19:28;;;;;;;26.42;15.70;;;;;;;6.82;100.00;100615.78;5021163;28;20025;-73
2023/04/22 01:21:54;;;;;;;25.38;15.30;;;;;;;6.84;100.00;100613.91;5023012;28;20050;-73
2023/04/22 01:24:20;;;;;;;24.75;13.55;;;;;;;6.85;100.00;100610.25;5022711;28;20106;-73
2023/04/22 01:26:46;;;;;;;24.35;13.25;;;;;;;6.87;100.00;100620.84;5029885;28;20029;-73
2023/04/22 01:29:13;;;;;;;25.73;14.32;;;;;;;6.87;100.00;100620.84;5025344;28;20109;-73
2023/04/22 01:31:38;;;;;;;27.20;13.68;;;;;;;6.87;100.00;100613.72;5022093;28;20026;-73
2023/04/22 01:34:04;;;;;;;25.33;13.57;;;;;;;6.87;100.00;100611.03;5017235;28;20087;-73
2023/04/22 01:36:31;;;;;;;26.45;13.95;;;;;;;6.92;100.00;100606.25;5024408;28;20032;-73
2023/04/22 01:38:57;;;;;;;25.30;14.18;;;;;;;6.92;100.00;100602.75;5029261;28;20049;-73
2023/04/22 01:41:23;;;;;;;23.58;13.57;;;;;;;6.91;100.00;100607.25;5019093;28;20033;-73
2023/04/22 01:43:49;;;;;;;22.65;13.13;;;;;;;6.89;100.00;100608.28;5011142;28;20038;-73
2023/04/22 01:46:16;;;;;;;23.48;12.93;;;;;;;6.92;100.00;100610.75;5024023;28;20104;-73
2023/04/22 01:48:41;;;;;;;24.10;13.57;;;;;;;6.93;100.00;100615.16;5024810;28;20431;-74
2023/04/22 01:51:06;;;;;;;24.95;14.20;;;;;;;6.95;100.00;100615.91;5023492;28;20033;-73
2023/04/22 01:53:32;;;;;;;24.60;14.13;;;;;;;6.94;100.00;100611.50;5018144;28;20061;-73
2023/04/22 01:55:58;;;;;;;25.42;13.27;;;;;;;6.94;100.00;100606.16;5018535;28;20030;-73
2023/04/22 01:58:23;;;;;;;25.13;12.75;;;;;;;6.96;100.00;100609.63;5022080;28;20516;-73
2023/04/22 02:00:49;;;;;;;25.00;13.30;;;;;;;6.99;100.00;100604.94;5019362;28;20058;-73
2023/04/22 02:03:14;;;;;;;29.65;19.30;;;;;;;6.98;100.00;100607.69;5026841;28;20614;-73
2023/04/22 02:05:39;;;;;;;25.05;13.75;;;;;;;7.00;100.00;100605.81;5016984;28;20125;-74
2023/04/22 02:08:05;;;;;;;27.08;15.95;;;;;;;6.98;100.00;100607.69;5016336;28;20037;-73
2023/04/22 02:10:30;;;;;;;23.25;13.30;;;;;;;6.93;100.00;100605.31;5024615;28;20076;-73
2023/04/22 02:12:56;;;;;;;23.27;12.50;;;;;;;6.90;100.00;100608.19;5020960;28;20036;-73
2023/04/22 02:15:22;;;;;;;23.95;12.65;;;;;;;6.88;100.00;100601.22;5014587;28;20504;-73
2023/04/22 02:17:48;;;;;;;23.45;13.35;;;;;;;6.87;100.00;100607.50;5020024;28;20037;-73
2023/04/22 02:20:13;;;;;;;22.55;12.43;;;;;;;6.83;100.00;100606.84;5026823;28;20170;-73
2023/04/22 02:22:41;;;;;;;24.98;13.10;;;;;;;6.82;100.00;100607.78;5019235;28;20049;-73
2023/04/22 02:25:07;;;;;;;23.88;12.75;;;;;;;6.80;100.00;100597.19;5017741;28;20042;-73
2023/04/22 02:27:33;;;;;;;25.23;13.00;;;;;;;6.77;100.00;100601.88;5024536;28;20141;-74
2023/04/22 02:29:58;;;;;;;22.88;12.35;;;;;;;6.74;100.00;100592.25;5023686;28;20104;-73
2023/04/22 02:32:24;;;;;;;22.83;12.02;;;;;;;6.76;100.00;100586.81;5019757;28;20021;-73
2023/04/22 02:34:49;;;;;;;26.48;12.90;;;;;;;6.77;100.00;100583.19;5025206;28;20051;-73
2023/04/22 02:37:15;;;;;;;21.77;11.30;;;;;;;6.76;100.00;100586.81;5014180;28;20029;-73
2023/04/22 02:39:40;;;;;;;22.85;12.07;;;;;;;6.72;100.00;100580.81;5029066;28;20033;-73
2023/04/22 02:42:05;;;;;;;21.80;11.23;;;;;;;6.71;100.00;100584.41;5023922;28;20021;-74
2023/04/22 02:44:31;;;;;;;22.20;11.85;;;;;;;6.68;100.00;100578.38;5020448;28;20028;-73
2023/04/22 02:46:56;;;;;;;23.30;11.40;;;;;;;6.67;100.00;100582.88;5019095;28;20075;-73
2023/04/22 02:49:22;;;;;;;24.10;12.02;;;;;;;6.69;100.00;100580.13;5029903;28;20033;-73
2023/04/22 02:51:47;;;;;;;23.67;12.43;;;;;;;6.67;100.00;100577.53;5020141;28;20477;-73
2023/04/22 02:54:12;;;;;;;25.05;11.95;;;;;;;6.66;100.00;100575.81;5019565;28;20021;-73
2023/04/22 02:56:38;;;;;;;25.10;13.00;;;;;;;6.63;100.00;100579.56;5014390;28;20018;-73
2023/04/22 02:59:03;;;;;;;23.88;13.45;;;;;;;6.61;100.00;100576.09;5026370;28;20044;-73
2023/04/22 03:01:28;;;;;;;24.45;12.60;;;;;;;6.61;100.00;100573.44;5020855;28;20201;-73
2023/04/22 03:03:55;;;;;;;28.77;14.70;;;;;;;6.63;100.00;100584.91;5021070;28;20220;-73
2023/04/22 03:06:21;;;;;;;25.20;14.27;;;;;;;6.67;100.00;100585.56;5018045;28;20038;-73
2023/04/22 03:08:46;;;;;;;21.65;12.05;;;;;;;6.67;100.00;100584.72;5021281;28;20029;-73
2023/04/22 03:11:12;;;;;;;24.60;12.65;;;;;;;6.70;100.00;100579.16;5021526;28;20489;-73
2023/04/22 03:13:38;;;;;;;25.90;13.38;;;;;;;6.68;100.00;100568.59;5027362;28;20143;-73
2023/04/22 03:16:03;;;;;;;24.98;14.27;;;;;;;6.68;100.00;100563.25;5010396;28;20396;-73
2023/04/22 03:18:28;;;;;;;25.27;14.68;;;;;;;6.68;100.00;100565.03;5019684;28;20044;-73
2023/04/22 03:20:53;;;;;;;24.23;13.52;;;;;;;6.65;100.00;100563.44;5021406;28;20053;-73
2023/04/22 03:23:19;;;;;;;24.10;14.13;;;;;;;6.64;100.00;100564.38;5012296;28;20040;-73
2023/04/22 03:25:44;;;;;;;23.20;13.23;;;;;;;6.65;100.00;100558.94;5021085;28;20385;-73
2023/04/22 03:28:09;;;;;;;24.13;13.80;;;;;;;6.69;100.00;100554.28;5021306;28;20076;-73
2023/04/22 03:30:35;;;;;;;25.33;14.82;;;;;;;6.69;100.00;100556.09;5029216;28;20040;-74
2023/04/22 03:33:00;;;;;;;25.08;13.82;;;;;;;6.68;100.00;100549.00;5032634;28;20037;-73
2023/04/22 03:35:25;;;;;;;24.00;12.95;;;;;;;6.65;100.00;100548.25;5015017;28;20403;-73
2023/04/22 03:37:50;;;;;;;25.73;14.02;;;;;;;6.64;100.00;100541.19;5023650;28;20030;-73
2023/04/22 03:40:16;;;;;;;24.75;13.07;;;;;;;6.61;100.00;100543.22;5026643;28;20038;-74
2023/04/22 03:42:41;;;;;;;24.25;13.48;;;;;;;6.61;100.00;100540.53;5018431;28;20101;-74
2023/04/22 03:45:07;;;;;;;24.73;12.55;;;;;;;6.62;100.00;100539.59;5016048;28;20092;-73
2023/04/22 03:47:32;;;;;;;24.23;12.48;;;;;;;6.59;100.00;100531.78;5016393;28;20038;-73
2023/04/22 03:49:57;;;;;;;24.17;12.93;;;;;;;6.58;100.00;100525.56;5030950;28;20044;-73
2023/04/22 03:52:22;;;;;;;23.00;11.98;;;;;;;6.58;100.00;100530.91;5021853;28;20059;-73
2023/04/22 03:54:48;;;;;;;21.73;10.82;;;;;;;6.57;100.00;100525.66;5027239;28;20397;-74
2023/04/22 03:57:13;;;;;;;22.95;12.20;;;;;;;6.55;100.00;100524.91;5013146;28;20049;-73
2023/04/22 03:59:38;;;;;;;23.20;13.40;;;;;;;6.53;100.00;100526.78;5028226;28;20396;-75
2023/04/22 04:02:04;;;;;;;25.38;12.60;;;;;;;6.51;100.00;100524.22;5025305;28;20036;-75
2023/04/22 04:04:31;;;;;;;22.30;11.73;;;;;;;6.50;100.00;100521.66;5032867;28;20076;-75
2023/04/22 04:06:57;;;;;;;23.88;13.43;;;;;;;6.51;100.00;100513.53;5024935;28;20515;-75
2023/04/22 04:09:23;;;;;;;23.83;12.88;;;;;;;6.51;100.00;100513.53;5024115;28;20117;-75
2023/04/22 04:11:48;;;;;;;24.23;12.98;;;;;;;6.52;100.00;100517.09;5030536;28;20096;-75
2023/04/22 04:14:13;;;;;;;25.45;14.00;;;;;;;6.51;100.00;100512.69;5021253;28;20733;-75
2023/04/22 04:16:39;;;;;;;24.10;12.70;;;;;;;6.50;100.00;100517.19;5013597;28;20042;-75
2023/04/22 04:19:05;;;;;;;24.02;13.40;;;;;;;6.47;100.00;100518.22;5023493;28;20026;-75
2023/04/22 04:21:32;;;;;;;25.15;13.07;;;;;;;6.48;100.00;100519.06;5032239;28;20053;-75
2023/04/22 04:23:57;;;;;;;23.30;13.18;;;;;;;6.47;100.00;100512.00;5013965;28;20512;-75
2023/04/22 04:26:23;;;;;;;22.33;11.73;;;;;;;6.49;100.00;100504.78;5017036;28;20032;-75
2023/04/22 04:28:49;;;;;;;22.77;12.40;;;;;;;6.47;100.00;100507.53;5028695;28;20028;-75
2023/04/22 04:31:14;;;;;;;23.00;13.05;;;;;;;6.48;100.00;100509.25;5029681;28;20029;-75
2023/04/22 04:33:40;;;;;;;23.33;13.07;;;;;;;6.47;100.00;100506.66;5012665;28;20105;-75
2023/04/22 04:36:07;;;;;;;23.40;12.45;;;;;;;6.46;100.00;100507.66;5029926;28;20025;-75
2023/04/22 04:38:33;;;;;;;25.35;13.10;;;;;;;6.47;100.00;100510.22;5022085;28;20503;-75
2023/04/22 04:40:58;;;;;;;25.65;13.02;;;;;;;6.48;100.00;100509.25;5025310;28;20044;-75
2023/04/22 04:43:24;;;;;;;24.92;13.02;;;;;;;6.48;100.00;100495.88;5019962;28;20021;-75
2023/04/22 04:45:50;;;;;;;30.02;13.18;;;;;;;6.47;100.00;100515.56;5015850;28;20018;-75
2023/04/22 04:48:18;;;;;;;25.00;12.85;;;;;;;6.47;100.00;100512.88;5031685;28;20116;-75
2023/04/22 04:50:44;;;;;;;26.40;13.07;;;;;;;6.50;100.00;100514.50;5025301;28;20022;-75
2023/04/22 04:53:10;;;;;;;24.63;14.32;;;;;;;6.50;100.00;100519.84;5013744;28;20503;-75
2023/04/22 04:55:36;;;;;;;25.98;14.00;;;;;;;6.51;100.00;100518.88;5015374;28;20022;-75
2023/04/22 04:58:01;;;;;;;25.67;13.73;;;;;;;6.51;100.00;100516.22;5015522;28;20055;-75
2023/04/22 05:00:27;;;;;;;26.92;13.95;;;;;;;6.54;100.00;100517.84;5020678;28;20075;-76
2023/04/22 05:02:52;;;;;;;25.38;14.93;;;;;;;6.57;100.00;100517.66;5020334;28;20102;-75
2023/04/22 05:05:17;;;;;;;26.13;13.75;;;;;;;6.60;100.00;100515.66;5013979;28;20465;-75
2023/04/22 05:07:43;;;;;;;23.92;13.57;;;;;;;6.65;100.00;100520.72;5015947;28;20021;-75
2023/04/22 05:10:09;;;;;;;28.73;15.82;;;;;;;6.68;100.00;100516.97;5011306;28;20026;-75
2023/04/22 05:12:34;;;;;;;27.95;14.15;;;;;;;6.70;100.00;100507.91;5016004;28;20603;-76
2023/04/22 05:14:59;;;;;;;28.40;15.65;;;;;;;6.77;100.00;100497.72;5015557;28;20030;-75
2023/04/22 05:17:25;;;;;;;27.75;14.93;;;;;;;6.77;100.00;100493.22;5028994;28;20125;-75
2023/04/22 05:19:50;;;;;;;25.08;13.63;;;;;;;6.78;100.00;100494.09;5018094;28;20044;-75
2023/04/22 05:22:17;;;;;;;25.20;13.38;;;;;;;6.78;100.00;100504.78;5015436;28;20393;-76
2023/04/22 05:24:42;;;;;;;24.48;14.32;;;;;;;6.80;100.00;100501.03;5021144;28;20160;-75
2023/04/22 05:27:08;;;;;;;24.77;12.65;;;;;;;6.83;100.00;100513.34;5016036;28;20102;-75
2023/04/22 05:29:33;;;;;;;24.38;12.75;;;;;;;6.86;100.00;100512.31;5012067;28;20021;-75
2023/04/22 05:31:58;;;;;;;24.35;12.63;;;;;;;6.86;100.00;100510.47;5019085;28;20405;-75
2023/04/22 05:34:24;;;;;;;23.35;13.02;;;;;;;6.86;100.00;100502.47;5018793;28;20030;-75
2023/04/22 05:36:49;;;;;;;25.08;13.25;;;;;;;6.91;100.00;100504.84;5019591;28;20022;-75
2023/04/22 05:39:15;;;;;;;24.15;13.27;;;;;;;6.96;100.00;100503.59;5025023;28;20380;-75
2023/04/22 05:41:40;;;;;;;24.52;13.02;;;;;;;6.99;100.00;100497.22;5022890;28;20034;-75
2023/04/22 05:44:05;;;;;;;25.38;14.30;;;;;;;7.04;100.00;100504.91;5020713;28;20551;-75
2023/04/22 05:46:31;;;;;;;25.23;14.82;;;;;;;7.10;100.00;100505.41;5028448;28;20030;-76
2023/04/22 05:48:56;;;;;;;26.27;14.75;;;;;;;7.14;100.00;100506.91;5019620;28;20072;-75
2023/04/22 05:51:22;;;;;;;25.27;14.38;;;;;;;7.18;100.00;100502.22;5017687;28;20028;-76
2023/04/22 05:53:48;;;;;;;26.58;15.93;;;;;;;7.23;100.00;100500.09;5019293;28;20056;-75
2023/04/22 05:56:13;;;;;;;25.98;16.20;;;;;;;7.28;100.00;100503.34;5022877;28;20061;-75
2023/04/22 05:58:38;;;;;;;26.77;17.13;;;;;;;7.35;100.00;100503.81;5011371;28;20018;-76
2023/04/22 06:01:04;;;;;;;28.02;17.25;;;;;;;7.39;100.00;100496.44;5026504;28;20083;-75
2023/04/22 06:03:29;;;;;;;30.85;17.85;;;;;;;7.45;100.00;100494.22;5022592;28;20345;-75
2023/04/22 06:05:54;;;;;;;27.60;17.90;;;;;;;7.52;100.00;100500.84;5023834;28;20125;-75
2023/04/22 06:08:20;;;;;;;28.70;19.95;;;;;;;7.65;100.00;100500.91;5019712;28;20120;-75
2023/04/22 06:10:45;;;;;;;29.60;19.30;;;;;;;7.72;100.00;100497.81;5017149;28;20056;-75
2023/04/22 06:13:10;;;;;;;28.90;19.63;;;;;;;7.79;100.00;100499.13;5043094;28;20033;-76
2023/04/22 06:15:36;;;;;;;28.70;19.65;;;;;;;7.83;100.00;100509.53;5024429;28;20030;-76
2023/04/22 06:18:01;;;;;;;29.92;20.48;;;;;;;7.91;100.00;100506.34;5023784;28;20039;-75
2023/04/22 06:20:27;;;;;;;32.70;20.92;;;;;;;7.99;100.00;100490.59;5025521;28;20029;-75
2023/04/22 06:22:52;;;;;;;33.15;20.77;;;;;;;8.05;100.00;100492.88;5036364;28;20022;-75
2023/04/22 06:25:17;;;;;;;31.67;22.27;;;;;;;8.16;100.00;100476.06;5018876;28;20056;-75
2023/04/22 06:27:42;;;;;;;30.30;22.42;;;;;;;8.26;100.00;100480.78;5018777;28;20102;-75
2023/04/22 06:30:10;;;;;;;30.77;21.50;;;;;;;8.35;100.00;100482.81;5019922;28;20033;-75
2023/04/22 06:32:35;;;;;;;32.05;22.13;;;;;;;8.43;100.00;100487.63;5018485;28;20029;-73
2023/04/22 06:35:00;;;;;;;30.33;20.70;;;;;;;8.52;100.00;100478.97;5020939;28;20464;-73
2023/04/22 06:37:26;;;;;;;29.17;19.83;;;;;;;8.59;100.00;100480.25;5028020;28;20061;-73
2023/04/22 06:39:51;;;;;;;28.75;19.27;;;;;;;8.70;100.00;100487.56;5014597;28;20040;-73
2023/04/22 06:42:16;;;;;;;28.88;19.17;;;;;;;8.77;100.00;100486.16;5010649;28;20022;-73
2023/04/22 06:44:42;;;;;;;28.13;19.83;;;;;;;8.85;100.00;100480.22;5015383;28;20112;-74
2023/04/22 06:47:07;;;;;;;27.33;17.02;;;;;;;8.92;100.00;100476.13;5014928;28;20029;-73
2023/04/22 06:49:34;;;;;;;26.80;17.17;;;;;;;8.99;100.00;100460.44;5017896;28;20116;-73
2023/04/22 06:51:59;;;;;;;26.77;17.10;;;;;;;9.01;100.00;100463.91;5004237;28;20029;-74
2023/04/22 06:54:25;;;;;;;29.13;18.17;;;;;;;9.07;100.00;100475.00;5020975;28;20026;-74
2023/04/22 06:56:50;;;;;;;29.80;17.17;;;;;;;9.16;100.00;100475.31;5018718;28;20049;-73
2023/04/22 06:59:15;;;;;;;27.52;18.20;;;;;;;9.25;100.00;100475.50;5019843;28;20132;-73
2023/04/22 07:01:40;;;;;;;27.10;18.30;;;;;;;9.35;100.00;100478.34;5027456;28;20048;-72
2023/04/22 07:04:06;;;;;;;27.58;16.55;;;;;;;9.48;100.00;100475.59;5015256;28;20500;-72
2023/04/22 07:06:31;;;;;;;24.27;12.80;;;;;;;9.56;100.00;100465.16;5021042;28;20488;-72
2023/04/22 07:08:57;;;;;;;27.40;15.60;;;;;;;9.67;100.00;100468.88;5029665;28;20112;-73
2023/04/22 07:11:22;;;;;;;29.10;17.30;;;;;;;9.80;100.00;100464.28;5015173;28;20067;-72
2023/04/22 07:13:47;;;;;;;24.80;14.40;;;;;;;9.86;100.00;100465.63;5021667;28;20366;-72
2023/04/22 07:16:12;;;;;;;27.17;15.73;;;;;;;9.90;100.00;100456.38;5028349;28;20056;-73
2023/04/22 07:18:38;;;;;;;24.40;14.40;;;;;;;9.94;100.00;100461.41;5025318;28;20411;-73
2023/04/22 07:21:04;;;;;;;26.38;15.07;;;;;;;10.00;100.00;100462.75;5020775;28;20046;-73
2023/04/22 07:23:29;;;;;;;25.70;15.50;;;;;;;10.01;100.00;100464.44;5024626;28;20025;-74
2023/04/22 07:25:55;;;;;;;27.75;14.50;;;;;;;10.05;100.00;100467.75;5013793;28;20025;-73
2023/04/22 07:28:20;;;;;;;23.17;12.73;;;;;;;10.10;100.00;100473.63;5020863;28;20091;-74
2023/04/22 07:30:45;;;;;;;23.33;13.13;;;;;;;10.11;100.00;100459.22;5024137;28;20480;-74
2023/04/22 07:33:11;;;;;;;24.35;14.25;;;;;;;10.11;100.00;100460.06;5012991;28;20029;-73
2023/04/22 07:35:36;;;;;;;26.35;15.63;;;;;;;10.17;100.00;100460.59;5006756;28;20374;-74
2023/04/22 07:38:02;;;;;;;26.52;14.13;;;;;;;10.20;100.00;100463.03;5006819;28;20117;-75
2023/04/22 07:40:27;;;;;;;24.67;13.60;;;;;;;10.26;100.00;100460.72;5021083;28;20101;-73
2023/04/22 07:42:52;;;;;;;24.88;14.23;;;;;;;10.34;100.00;100470.91;5024845;28;20053;-74
2023/04/22 07:45:18;;;;;;;26.60;15.40;;;;;;;10.41;100.00;100476.63;5016177;28;20033;-73
2023/04/22 07:47:43;;;;;;;25.25;14.25;;;;;;;10.42;100.00;100473.81;5014590;28;20029;-73
2023/04/22 07:50:09;;;;;;;25.50;14.35;;;;;;;10.45;100.00;100465.53;5018842;28;20144;-75
2023/04/22 07:52:35;;;;;;;25.20;14.60;;;;;;;10.47;100.00;100451.97;5010229;28;20161;-74
2023/04/22 07:55:00;;;;;;;25.00;14.60;;;;;;;10.53;100.00;100453.31;5019218;28;20520;-74
2023/04/22 07:57:26;;;;;;;25.92;12.73;;;;;;;10.58;100.00;100445.75;5026005;28;20032;-75
2023/04/22 07:59:51;;;;;;;27.25;13.98;;;;;;;10.65;100.00;100442.44;5021446;28;20029;-74
2023/04/22 08:02:17;;;;;;;26.60;14.50;;;;;;;10.69;100.00;100440.38;5023960;28;20117;-74
2023/04/22 08:04:42;;;;;;;24.52;13.40;;;;;;;10.77;100.00;100437.91;5022486;28;20036;-74
2023/04/22 08:07:07;;;;;;;25.23;12.38;;;;;;;10.83;100.00;100434.75;5031748;28;20044;-74
2023/04/22 08:09:33;;;;;;;25.95;13.18;;;;;;;10.86;100.00;100430.91;5021440;28;20026;-74
2023/04/22 08:11:58;;;;;;;27.35;13.55;;;;;;;10.93;100.00;100429.44;5022440;28;20481;-74
2023/04/22 08:14:23;;;;;;;22.77;11.82;;;;;;;11.03;100.00;100432.25;5024569;28;20477;-73
2023/04/22 08:16:52;;;;;;;22.80;11.32;;;;;;;11.11;100.00;100432.47;5025872;28;20055;-73
2023/04/22 08:19:19;;;;;;;25.63;13.48;;;;;;;11.23;100.00;100440.50;5022870;28;20060;-74
2023/04/22 08:21:45;;;;;;;25.83;11.60;;;;;;;11.36;100.00;100427.72;5021396;28;20269;-73
2023/04/22 08:24:10;;;;;;;22.25;11.15;;;;;;;11.44;100.00;100430.66;5025173;28;20433;-74
2023/04/22 08:26:37;;;;;;;22.40;11.52;;;;;;;11.54;100.00;100428.06;5024355;28;20053;-74
2023/04/22 08:29:03;;;;;;;23.98;11.73;;;;;;;11.63;100.00;100426.41;5021320;28;20022;-74
2023/04/22 08:31:28;;;;;;;25.40;12.23;;;;;;;11.70;100.00;100423.06;5019051;28;20032;-74
2023/04/22 08:33:54;;;;;;;20.45;10.27;;;;;;;11.74;100.00;100423.66;5018815;28;20052;-74
2023/04/22 08:36:21;;;;;;;24.20;11.48;;;;;;;11.83;100.00;100411.25;5020401;28;20026;-74
2023/04/22 08:38:47;;;;;;;23.58;11.23;;;;;;;11.94;100.00;100418.44;5021726;28;20026;-74
2023/04/22 08:41:13;;;;;;;22.88;11.23;;;;;;;12.04;100.00;100397.81;5025677;28;20029;-73
2023/04/22 08:43:38;;;;;;;22.20;10.77;;;;;;;12.10;100.00;100394.56;5024086;28;20108;-74
2023/04/22 08:46:04;;;;;;;23.80;11.20;;;;;;;12.15;100.00;100388.78;5021125;28;20030;-74
2023/04/22 08:48:31;;;;;;;21.23;9.85;;;;;;;12.16;100.00;100385.94;5019485;28;20496;-74
2023/04/22 08:50:57;;;;;;;22.70;10.15;;;;;;;12.15;100.00;100376.19;5020777;28;20389;-74
2023/04/22 08:53:22;;;;;;;23.13;10.55;;;;;;;12.18;100.00;100378.59;5024292;28;20036;-74
2023/04/22 08:55:48;;;;;;;22.48;10.43;;;;;;;12.21;100.00;100383.72;5023966;28;20358;-74
2023/04/22 08:58:13;;;;;;;22.35;10.02;;;;;;;12.27;100.00;100387.72;5021389;28;20112;-74
2023/04/22 09:00:42;;;;;;;21.48;9.60;;;;;;;12.36;100.00;100380.66;5020073;28;20121;-73
2023/04/22 09:03:08;;;;;;;20.40;9.13;;;;;;;12.47;99.90;100375.16;5022057;28;20033;-74
2023/04/22 09:05:36;;;;;;;21.80;9.82;;;;;;;12.63;98.18;100377.34;5013438;28;20346;-74
2023/04/22 09:08:02;;;;;;;20.92;10.23;;;;;;;12.74;98.13;100379.94;5023807;28;20064;-73
2023/04/22 09:10:28;;;;;;;22.45;9.57;;;;;;;12.83;98.13;100378.25;5020708;28;20199;-74
2023/04/22 09:12:55;;;;;;;22.38;8.73;;;;;;;12.97;96.36;100384.22;5021125;28;20018;-73
2023/04/22 09:15:21;;;;;;;20.02;9.20;;;;;;;13.04;96.90;100382.69;5026457;28;20032;-74
2023/04/22 09:17:46;;;;;;;20.60;9.20;;;;;;;13.11;98.30;100381.13;5018629;28;20037;-74
2023/04/22 09:20:11;;;;;;;21.88;9.35;;;;;;;13.20;96.81;100385.66;5023904;28;20540;-73
2023/04/22 09:22:47;;;;;;;20.83;8.93;;;;;;;13.27;95.47;100384.13;5019873;28;20053;-74
2023/04/22 09:25:20;;;;;;;19.73;7.70;;;;;;;13.33;95.49;100385.41;5020705;28;20061;-73
2023/04/22 09:27:50;;;;;;;19.33;8.82;;;;;;;13.44;96.54;100376.31;5023232;28;20480;-74
2023/04/22 09:30:17;;;;;;;19.30;9.13;;;;;;;13.52;95.02;100367.53;5022076;28;20056;-74
2023/04/22 09:32:50;;;;;;;19.90;9.30;;;;;;;13.58;96.15;100367.78;5021642;28;20117;-73
2023/04/22 09:35:24;;;;;;;23.85;9.50;;;;;;;13.68;95.75;100372.34;5018933;28;20045;-74
2023/04/22 09:37:52;;;;;;;19.90;8.60;;;;;;;13.76;96.79;100365.22;5022310;28;20030;-74
2023/04/22 09:40:17;;;;;;;22.48;9.80;;;;;;;13.83;95.44;100367.34;5023468;28;20037;-74
2023/04/22 09:42:50;;;;;;;20.55;9.60;;;;;;;13.87;93.63;100369.59;5022350;28;20136;-74
2023/04/22 09:45:29;;;;;;;22.05;9.60;;;;;;;13.93;94.52;100377.13;5018975;28;20120;-74
2023/04/22 09:47:56;;;;;;;21.27;9.35;;;;;;;13.94;93.39;100381.53;5021332;28;20033;-74
2023/04/22 09:50:27;;;;;;;23.27;9.25;;;;;;;14.05;95.51;100385.06;5021939;28;20033;-74
2023/04/22 09:53:00;;;;;;;18.73;8.95;;;;;;;14.06;94.86;100374.09;5022731;28;20509;-75
2023/04/22 09:55:28;;;;;;;18.85;8.15;;;;;;;14.15;92.71;100375.06;5018439;28;20030;-74
2023/04/22 09:57:55;;;;;;;20.83;9.23;;;;;;;14.18;95.28;100374.78;5018690;28;20155;-74
2023/04/22 10:00:26;;;;;;;20.90;9.15;;;;;;;14.26;94.42;100376.72;5011788;28;20121;-74
2023/04/22 10:02:51;;;;;;;20.70;8.95;;;;;;;14.30;93.19;100375.44;5018313;28;20030;-74
2023/04/22 10:05:17;;;;;;;22.65;10.48;;;;;;;14.34;90.70;100379.56;5021915;28;20048;-74
2023/04/22 10:07:43;;;;;;;20.83;8.95;;;;;;;14.41;91.01;100374.41;5022758;28;20025;-74
2023/04/22 10:10:09;;;;;;;22.27;9.98;;;;;;;14.50;89.47;100374.34;5022682;28;20413;-74
2023/04/22 10:12:35;;;;;;;20.75;10.07;;;;;;;14.57;92.41;100380.00;5019835;28;20105;-75
2023/04/22 10:15:05;;;;;;;23.40;10.40;;;;;;;14.66;90.19;100392.66;5018292;28;20060;-74
2023/04/22 10:17:31;;;;;;;;;;;;;;;14.61;92.65;100385.97;5020735;28;20022;-74
2023/04/22 10:20:03;;;;;;;19.52;9.13;;;;;;;14.71;92.24;100381.38;5022651;28;20253;-74
2023/04/22 10:22:29;;;;;;;21.45;9.70;;;;;;;14.76;89.62;100386.34;5020988;28;20038;-74
2023/04/22 10:24:56;;;;;;;20.80;9.23;;;;;;;14.84;88.74;100392.69;5018627;28;20112;-74
2023/04/22 10:27:22;;;;;;;20.80;9.88;;;;;;;14.90;88.72;100383.13;5019536;28;20483;-74
2023/04/22 10:29:47;;;;;;;19.45;8.98;;;;;;;14.93;87.30;100368.44;5022569;28;20080;-74
2023/04/22 10:32:18;;;;;;;18.60;7.63;;;;;;;15.07;87.85;100376.03;5021287;28;20112;-75
2023/04/22 10:34:48;;;;;;;19.92;6.72;;;;;;;15.21;82.81;100366.53;5020196;28;20032;-75
2023/04/22 10:37:17;;;;;;;19.15;7.13;;;;;;;15.30;82.73;100368.31;5019497;28;20022;-74
2023/04/22 10:40:15;;;;;;;16.70;6.13;;;;;;;15.37;85.94;100355.88;5020324;28;20033;-74
2023/04/22 10:42:40;;;;;;;17.83;6.72;;;;;;;15.44;81.30;100356.06;5021889;28;20057;-74
2023/04/22 10:45:06;;;;;;;19.83;7.15;;;;;;;15.42;80.17;100363.50;5019301;28;20060;-75
2023/04/22 10:47:36;;;;;;;20.50;6.88;;;;;;;15.34;81.65;100368.84;5019008;28;20032;-74
2023/04/22 10:50:16;;;;;;;19.75;6.78;;;;;;;15.23;83.35;100377.19;5020325;28;20157;-74
2023/04/22 10:52:45;;;;;;;19.60;7.32;;;;;;;15.12;81.75;100368.28;5022586;28;20045;-75
2023/04/22 10:55:11;;;;;;;18.33;6.97;;;;;;;15.03;80.92;100380.06;5019477;28;20034;-74
2023/04/22 10:57:40;;;;;;;16.05;6.28;;;;;;;14.92;82.11;100389.25;5015870;28;20445;-74
2023/04/22 11:00:39;;;;;;;17.92;7.40;;;;;;;14.81;83.54;100392.16;5019543;28;20144;-74
2023/04/22 11:03:04;;;;;;;18.27;6.72;;;;;;;14.71;83.57;100388.66;5019841;28;20052;-74
2023/04/22 11:05:31;;;;;;;19.58;7.70;;;;;;;14.64;83.78;100391.09;5022353;28;20433;-75